Time;durP1;ratioP1;P1;durP2;ratioP2;P2;SDS_P1;SDS_P2;PMS_P1;PMS_P2;Temp;Humidity;BMP_temperature;BMP_pressure;BME280_temperature;BME280_humidity;BME280_pressure;Samples;Min_cycle;Max_cycle;Signal;HPM_P1;HPM_P2
2022/10/13 00:01:56;;;;;;;11.57;8.10;;;12.70;85.50;;;;;;5018012;28;20037;-61
2022/10/13 00:04:23;;;;;;;13.93;8.30;;;12.70;85.50;;;;;;5018044;28;20045;-62
2022/10/13 00:06:48;;;;;;;13.32;8.52;;;12.70;85.50;;;;;;5017099;28;20141;-60
2022/10/13 00:09:14;;;;;;;13.52;8.23;;;12.80;85.50;;;;;;5017007;28;20125;-61
2022/10/13 00:11:39;;;;;;;12.30;8.20;;;12.80;85.50;;;;;;5018150;28;20041;-61
2022/10/13 00:14:05;;;;;;;11.57;7.85;;;12.80;85.50;;;;;;5017935;28;20048;-61
2022/10/13 00:16:31;;;;;;;10.55;7.72;;;12.80;85.40;;;;;;5016328;28;20080;-61
2022/10/13 00:18:57;;;;;;;14.10;8.40;;;12.80;85.50;;;;;;5017387;28;20144;-62
2022/10/13 00:21:25;;;;;;;13.07;8.25;;;12.80;85.60;;;;;;5015099;28;20096;-61
2022/10/13 00:23:52;;;;;;;12.13;7.97;;;12.90;85.90;;;;;;5016833;28;20073;-60
2022/10/13 00:26:19;;;;;;;11.43;8.00;;;12.90;86.00;;;;;;5016779;28;20046;-62
2022/10/13 00:28:45;;;;;;;18.45;8.80;;;12.90;86.00;;;;;;5016043;28;20064;-62
2022/10/13 00:31:20;;;;;;;14.85;8.30;;;12.90;85.90;;;;;;5016458;28;20076;-61
2022/10/13 00:33:48;;;;;;;11.38;8.27;;;12.90;86.20;;;;;;5017077;28;20041;-61
2022/10/13 00:36:14;;;;;;;11.98;8.13;;;13.00;86.00;;;;;;5016024;28;20037;-62
2022/10/13 00:38:39;;;;;;;11.77;8.10;;;13.00;85.90;;;;;;5015493;28;20037;-61
2022/10/13 00:41:05;;;;;;;11.48;8.13;;;13.00;85.90;;;;;;5012925;28;20042;-62
2022/10/13 00:43:51;;;;;;;12.38;7.80;;;13.00;86.00;;;;;;5016448;28;20064;-62
2022/10/13 00:46:16;;;;;;;14.65;7.90;;;13.00;87.40;;;;;;5017501;28;20521;-61
2022/10/13 00:48:43;;;;;;;13.27;7.95;;;13.10;86.10;;;;;;5016863;28;20098;-60
2022/10/13 00:51:11;;;;;;;16.63;8.68;;;13.10;86.20;;;;;;5017025;28;20412;-59
2022/10/13 00:53:38;;;;;;;17.95;8.05;;;13.20;86.30;;;;;;5016804;28;20041;-62
2022/10/13 00:56:06;;;;;;;14.15;8.40;;;13.20;86.20;;;;;;5017426;28;20409;-61
2022/10/13 00:58:33;;;;;;;13.13;8.70;;;13.10;86.20;;;;;;5015874;28;20070;-62
2022/10/13 01:00:59;;;;;;;16.48;8.52;;;13.20;86.20;;;;;;5020062;28;20107;-62
2022/10/13 01:03:25;;;;;;;12.27;8.82;;;13.20;86.40;;;;;;5017937;28;20467;-57
2022/10/13 01:05:55;;;;;;;11.02;8.02;;;13.20;87.30;;;;;;5015805;28;20546;-60
2022/10/13 01:08:21;;;;;;;12.65;8.10;;;13.20;86.70;;;;;;5016043;28;20533;-60
2022/10/13 01:11:24;;;;;;;11.90;8.43;;;13.20;86.60;;;;;;5015509;28;20037;-61
2022/10/13 01:13:57;;;;;;;12.32;7.78;;;13.20;87.10;;;;;;5017077;28;20496;-61
2022/10/13 01:16:27;;;;;;;10.38;8.23;;;13.20;86.50;;;;;;5016757;28;20104;-60
2022/10/13 01:19:05;;;;;;;12.35;8.57;;;13.30;86.60;;;;;;5017054;28;20030;-60
2022/10/13 01:21:40;;;;;;;15.10;8.43;;;13.30;86.60;;;;;;5014896;28;20069;-61
2022/10/13 01:24:21;;;;;;;12.77;7.72;;;13.30;86.60;;;;;;5017022;28;20073;-61
2022/10/13 01:27:00;;;;;;;9.85;8.05;;;13.30;86.90;;;;;;5016296;28;20058;-60
2022/10/13 01:29:47;;;;;;;14.25;8.60;;;13.30;86.50;;;;;;5016925;28;20421;-62
2022/10/13 01:32:34;;;;;;;13.68;8.45;;;13.40;86.80;;;;;;5017603;28;20034;-60
2022/10/13 01:35:15;;;;;;;10.70;7.85;;;13.40;86.70;;;;;;5020416;28;20073;-61
2022/10/13 01:37:55;;;;;;;11.32;9.18;;;13.40;86.70;;;;;;5020256;28;20037;-60
2022/10/13 01:40:29;;;;;;;13.30;8.70;;;13.40;86.70;;;;;;5021251;28;20044;-61
2022/10/13 01:43:01;;;;;;;14.70;8.57;;;13.40;86.50;;;;;;5021186;28;20037;-61
2022/10/13 01:45:37;;;;;;;15.63;8.70;;;13.40;86.60;;;;;;5019122;28;20033;-59
2022/10/13 01:48:04;;;;;;;15.25;8.75;;;13.40;86.70;;;;;;5017274;28;20462;-60
2022/10/13 01:50:32;;;;;;;15.13;9.10;;;13.40;86.60;;;;;;5020426;28;20037;-59
2022/10/13 01:53:01;;;;;;;15.93;8.98;;;13.40;86.60;;;;;;5021097;28;20092;-60
2022/10/13 01:55:28;;;;;;;13.80;8.77;;;13.40;86.90;;;;;;5020993;28;20034;-60
2022/10/13 01:57:54;;;;;;;11.18;8.85;;;13.40;87.80;;;;;;5020029;28;20033;-62
2022/10/13 02:00:21;;;;;;;13.90;8.18;;;13.40;86.90;;;;;;5020512;28;20033;-60
2022/10/13 02:03:03;;;;;;;13.32;8.02;;;13.40;86.90;;;;;;5019310;28;20294;-60
2022/10/13 02:05:55;;;;;;;13.13;8.55;;;13.40;87.20;;;;;;5019955;28;20041;-60
2022/10/13 02:08:44;;;;;;;13.82;9.10;;;13.50;87.70;;;;;;5016690;28;20038;-60
2022/10/13 02:11:14;;;;;;;12.40;9.23;;;13.50;87.80;;;;;;5018968;28;20041;-61
2022/10/13 02:13:48;;;;;;;10.95;8.40;;;13.50;87.30;;;;;;5018753;28;20323;-60
2022/10/13 02:16:15;;;;;;;13.10;8.97;;;13.50;87.40;;;;;;5020106;28;20033;-61
2022/10/13 02:18:41;;;;;;;17.17;8.73;;;13.50;87.30;;;;;;5018908;28;20045;-61
2022/10/13 02:21:08;;;;;;;14.30;8.85;;;13.50;87.30;;;;;;5018043;28;20034;-59
2022/10/13 02:23:34;;;;;;;15.60;9.50;;;13.60;87.40;;;;;;5019681;28;20034;-60
2022/10/13 02:26:00;;;;;;;12.52;8.90;;;13.60;87.40;;;;;;5016798;28;20072;-62
2022/10/13 02:28:26;;;;;;;14.85;9.40;;;13.60;87.40;;;;;;5017665;28;20501;-61
2022/10/13 02:30:52;;;;;;;17.25;9.55;;;13.70;87.40;;;;;;5017619;28;20064;-61
2022/10/13 02:33:18;;;;;;;18.85;9.80;;;13.70;87.50;;;;;;5018678;28;20057;-61
2022/10/13 02:35:43;;;;;;;14.02;8.85;;;13.70;87.50;;;;;;5018309;28;20100;-59
2022/10/13 02:38:09;;;;;;;12.60;9.27;;;13.70;87.50;;;;;;5018041;28;20033;-61
2022/10/13 02:40:35;;;;;;;14.98;9.38;;;13.70;87.50;;;;;;5015533;28;20065;-62
2022/10/13 02:43:01;;;;;;;15.20;9.18;;;13.70;88.30;;;;;;5015960;28;20475;-60
2022/10/13 02:45:26;;;;;;;13.70;10.20;;;13.80;87.50;;;;;;5014044;28;20041;-61
2022/10/13 02:47:52;;;;;;;13.40;10.18;;;13.90;87.60;;;;;;5017900;28;21718;-62
2022/10/13 02:50:17;;;;;;;15.35;10.15;;;13.80;87.60;;;;;;5015734;28;20544;-61
2022/10/13 02:52:43;;;;;;;15.05;10.68;;;13.80;87.60;;;;;;5015182;28;20122;-60
2022/10/13 02:55:09;;;;;;;16.77;10.98;;;13.80;87.60;;;;;;5016183;28;20034;-60
2022/10/13 02:57:35;;;;;;;18.33;10.82;;;13.90;87.80;;;;;;5017565;28;20129;-61
2022/10/13 03:00:00;;;;;;;17.15;11.25;;;13.90;87.80;;;;;;5014596;28;20042;-61
2022/10/13 03:02:27;;;;;;;17.38;11.65;;;13.90;87.80;;;;;;5015107;28;20459;-61
2022/10/13 03:04:53;;;;;;;23.10;11.95;;;13.90;87.80;;;;;;5017242;28;20527;-60
2022/10/13 03:07:18;;;;;;;17.13;11.38;;;14.00;88.00;;;;;;5014115;28;20152;-59
2022/10/13 03:09:44;;;;;;;17.38;11.52;;;14.10;88.00;;;;;;5016748;28;20029;-60
2022/10/13 03:12:09;;;;;;;15.00;10.90;;;14.00;87.90;;;;;;5013215;28;20136;-60
2022/10/13 03:14:35;;;;;;;19.92;11.90;;;14.10;87.90;;;;;;5014372;28;20067;-61
2022/10/13 03:17:01;;;;;;;14.30;10.88;;;14.10;87.90;;;;;;5016925;28;20038;-60
2022/10/13 03:19:27;;;;;;;15.30;10.02;;;14.20;87.90;;;;;;5018203;28;20033;-62
2022/10/13 03:21:52;;;;;;;18.73;10.52;;;14.20;87.80;;;;;;5012728;28;20091;-61
2022/10/13 03:24:18;;;;;;;16.27;10.15;;;14.20;87.80;;;;;;5014859;28;20041;-61
2022/10/13 03:26:43;;;;;;;21.00;11.50;;;14.30;87.80;;;;;;5010538;28;20520;-60
2022/10/13 03:29:17;;;;;;;15.85;10.63;;;14.30;87.60;;;;;;5014335;28;20262;-61
2022/10/13 03:31:43;;;;;;;16.65;11.02;;;14.30;87.80;;;;;;5013667;28;20030;-62
2022/10/13 03:34:09;;;;;;;15.85;10.85;;;14.40;87.60;;;;;;5012930;28;20049;-61
2022/10/13 03:36:35;;;;;;;15.65;10.77;;;14.40;87.60;;;;;;5015782;28;20140;-62
2022/10/13 03:39:01;;;;;;;17.08;10.88;;;14.40;87.50;;;;;;5015204;28;20067;-60
2022/10/13 03:41:26;;;;;;;15.70;10.77;;;14.40;87.50;;;;;;5009831;28;20044;-61
2022/10/13 03:43:53;;;;;;;16.02;10.27;;;14.40;87.40;;;;;;5017307;28;20038;-60
2022/10/13 03:46:19;;;;;;;17.90;10.73;;;14.40;87.40;;;;;;5012809;28;20038;-61
2022/10/13 03:48:46;;;;;;;18.33;10.65;;;14.50;87.40;;;;;;5015548;28;20717;-62
2022/10/13 03:51:15;;;;;;;19.20;9.93;;;14.50;87.40;;;;;;5012709;28;20854;-61
2022/10/13 03:53:40;;;;;;;16.55;10.70;;;14.50;87.40;;;;;;5014672;28;20473;-61
2022/10/13 03:56:06;;;;;;;16.27;11.02;;;14.50;87.30;;;;;;5012266;28;20045;-61
2022/10/13 03:58:33;;;;;;;18.25;10.88;;;14.50;87.30;;;;;;5013596;28;20053;-60
2022/10/13 04:01:04;;;;;;;17.83;10.70;;;14.60;87.30;;;;;;5013994;28;20034;-62
2022/10/13 04:03:30;;;;;;;19.70;10.15;;;14.60;87.30;;;;;;5015404;28;20102;-59
2022/10/13 04:06:00;;;;;;;18.20;11.60;;;14.60;87.10;;;;;;5017153;28;20040;-61
2022/10/13 04:08:27;;;;;;;19.52;11.50;;;14.60;87.10;;;;;;5014315;28;20033;-61
2022/10/13 04:11:00;;;;;;;20.67;11.13;;;14.60;86.90;;;;;;5009288;28;20151;-62
2022/10/13 04:13:26;;;;;;;17.60;11.80;;;14.60;86.90;;;;;;5014953;28;20083;-61
2022/10/13 04:15:51;;;;;;;16.15;11.13;;;14.70;86.80;;;;;;5012701;28;20045;-61
2022/10/13 04:18:17;;;;;;;18.70;11.15;;;14.70;86.80;;;;;;5013433;28;20029;-60
2022/10/13 04:20:42;;;;;;;18.45;12.32;;;14.70;86.80;;;;;;5012919;28;21095;-61
2022/10/13 04:23:08;;;;;;;19.45;11.88;;;14.70;86.70;;;;;;5000446;28;20084;-61
2022/10/13 04:25:35;;;;;;;25.00;14.85;;;14.70;86.50;;;;;;5012237;28;20448;-62
2022/10/13 04:28:02;;;;;;;28.83;16.30;;;14.70;86.40;;;;;;5013918;28;20132;-60
2022/10/13 04:30:28;;;;;;;20.65;12.85;;;14.80;86.40;;;;;;5012676;28;20502;-61
2022/10/13 04:32:53;;;;;;;24.65;14.20;;;14.70;86.30;;;;;;5011285;28;20033;-61
2022/10/13 04:35:19;;;;;;;19.20;12.80;;;14.70;86.20;;;;;;5013531;28;20051;-61
2022/10/13 04:37:44;;;;;;;20.23;13.50;;;14.70;86.20;;;;;;5013200;28;20030;-62
2022/10/13 04:40:10;;;;;;;17.88;12.57;;;14.80;86.20;;;;;;5012751;28;20026;-62
2022/10/13 04:42:36;;;;;;;19.23;13.43;;;14.70;86.10;;;;;;5012583;28;20037;-62
2022/10/13 04:45:02;;;;;;;22.95;13.93;;;14.70;86.10;;;;;;5013652;28;20046;-61
2022/10/13 04:47:27;;;;;;;24.08;13.80;;;14.70;86.10;;;;;;5010010;28;20038;-62
2022/10/13 04:49:53;;;;;;;22.42;13.68;;;14.70;86.00;;;;;;5011739;28;20037;-62
2022/10/13 04:52:19;;;;;;;18.70;13.38;;;14.80;86.00;;;;;;5012572;28;20101;-60
2022/10/13 04:54:44;;;;;;;21.55;13.20;;;14.80;85.90;;;;;;5010361;28;20045;-60
2022/10/13 04:57:10;;;;;;;22.55;13.48;;;14.70;85.80;;;;;;5014542;28;20103;-61
2022/10/13 04:59:35;;;;;;;20.65;11.95;;;14.70;85.70;;;;;;5014833;28;20585;-60
2022/10/13 05:02:02;;;;;;;22.23;13.10;;;14.70;85.60;;;;;;5014848;28;20041;-60
2022/10/13 05:04:28;;;;;;;22.50;13.52;;;14.70;85.50;;;;;;5012265;28;20285;-58
2022/10/13 05:06:53;;;;;;;18.90;11.77;;;14.70;85.40;;;;;;5012886;28;20037;-60
2022/10/13 05:09:21;;;;;;;20.13;13.02;;;14.70;85.30;;;;;;5016141;28;20420;-60
2022/10/13 05:11:46;;;;;;;17.58;12.23;;;14.70;85.20;;;;;;5015452;28;20040;-61
2022/10/13 05:14:12;;;;;;;29.02;12.93;;;14.60;85.10;;;;;;5017825;28;20044;-60
2022/10/13 05:16:37;;;;;;;22.38;12.55;;;14.70;85.10;;;;;;5016549;28;20040;-59
2022/10/13 05:19:03;;;;;;;23.60;12.80;;;14.60;84.80;;;;;;5015533;28;20072;-60
2022/10/13 05:21:29;;;;;;;19.67;13.02;;;14.60;84.80;;;;;;5019162;28;20493;-60
2022/10/13 05:23:56;;;;;;;24.83;13.57;;;14.60;84.80;;;;;;5016159;28;21710;-60
2022/10/13 05:26:27;;;;;;;22.20;13.68;;;14.60;84.80;;;;;;5016560;28;20120;-60
2022/10/13 05:28:57;;;;;;;19.83;12.65;;;14.60;84.80;;;;;;5016042;28;20136;-60
2022/10/13 05:31:24;;;;;;;21.45;13.35;;;14.50;84.80;;;;;;5016053;28;20041;-60
2022/10/13 05:33:50;;;;;;;20.65;13.80;;;14.50;84.80;;;;;;5018700;28;20430;-61
2022/10/13 05:36:21;;;;;;;20.38;13.38;;;14.50;84.80;;;;;;5020576;28;20507;-60
2022/10/13 05:38:55;;;;;;;22.67;12.75;;;14.50;84.60;;;;;;5018511;28;20241;-61
2022/10/13 05:41:21;;;;;;;19.02;13.13;;;14.50;84.70;;;;;;5022092;28;20201;-61
2022/10/13 05:43:47;;;;;;;20.98;12.48;;;14.50;84.60;;;;;;5021140;28;20028;-62
2022/10/13 05:46:13;;;;;;;19.80;11.73;;;14.50;84.50;;;;;;5019719;28;20045;-59
2022/10/13 05:48:38;;;;;;;21.35;11.50;;;14.50;84.50;;;;;;5019902;28;20072;-62
2022/10/13 05:51:10;;;;;;;18.67;11.75;;;14.50;84.40;;;;;;5019871;28;20517;-61
2022/10/13 05:53:39;;;;;;;19.70;11.70;;;14.50;84.30;;;;;;5020403;28;20057;-62
2022/10/13 05:56:14;;;;;;;26.10;11.80;;;14.50;84.30;;;;;;5019769;28;20030;-61
2022/10/13 05:58:47;;;;;;;21.70;12.32;;;14.40;84.30;;;;;;5018373;28;20044;-62
2022/10/13 06:01:17;;;;;;;21.85;12.88;;;14.50;84.30;;;;;;5016871;28;20034;-60
2022/10/13 06:03:44;;;;;;;20.00;12.25;;;14.50;84.40;;;;;;5015633;28;20413;-60
2022/10/13 06:06:10;;;;;;;24.27;12.85;;;14.50;84.50;;;;;;5016023;28;20103;-62
2022/10/13 06:08:36;;;;;;;25.00;12.52;;;14.50;84.50;;;;;;5017605;28;20033;-60
2022/10/13 06:11:03;;;;;;;20.30;12.07;;;14.50;84.50;;;;;;5016091;28;20046;-61
2022/10/13 06:13:28;;;;;;;20.95;13.25;;;14.50;84.50;;;;;;5017836;28;20038;-62
2022/10/13 06:15:54;;;;;;;25.58;12.23;;;14.50;84.50;;;;;;5018089;28;20045;-61
2022/10/13 06:18:20;;;;;;;17.83;11.40;;;14.50;84.60;;;;;;5019127;28;20033;-60
2022/10/13 06:20:45;;;;;;;20.58;11.57;;;14.60;84.60;;;;;;5014963;28;20033;-61
2022/10/13 06:23:11;;;;;;;21.35;11.60;;;14.60;84.50;;;;;;5018475;28;20040;-61
2022/10/13 06:25:37;;;;;;;20.70;11.30;;;14.60;84.50;;;;;;5018907;28;20045;-61
2022/10/13 06:28:02;;;;;;;18.58;11.63;;;14.70;84.40;;;;;;5017499;28;20038;-60
2022/10/13 06:30:28;;;;;;;17.38;11.48;;;14.70;84.30;;;;;;5015575;28;20106;-62
2022/10/13 06:32:54;;;;;;;18.75;10.75;;;14.70;84.30;;;;;;5016468;28;20308;-61
2022/10/13 06:35:21;;;;;;;17.73;10.70;;;14.70;84.30;;;;;;5016119;28;20533;-60
2022/10/13 06:37:47;;;;;;;17.52;11.65;;;14.70;84.30;;;;;;5018194;28;20041;-60
2022/10/13 06:40:13;;;;;;;18.83;11.18;;;14.70;84.20;;;;;;5017794;28;20043;-61
2022/10/13 06:42:39;;;;;;;17.83;10.80;;;14.80;84.20;;;;;;5016640;28;20057;-61
2022/10/13 06:45:05;;;;;;;17.13;11.05;;;14.80;84.30;;;;;;5016262;28;20072;-60
2022/10/13 06:47:31;;;;;;;17.17;10.45;;;14.80;84.30;;;;;;5017565;28;20522;-60
2022/10/13 06:49:56;;;;;;;17.92;11.10;;;14.90;84.30;;;;;;5019478;28;20041;-61
2022/10/13 06:52:22;;;;;;;22.02;10.80;;;14.90;84.20;;;;;;5018920;28;20501;-60
2022/10/13 06:54:47;;;;;;;20.23;11.70;;;14.90;84.10;;;;;;5017691;28;20451;-60
2022/10/13 06:57:13;;;;;;;19.77;10.80;;;14.90;84.00;;;;;;5017516;28;20049;-60
2022/10/13 06:59:38;;;;;;;18.85;9.98;;;14.90;84.00;;;;;;5017106;28;20034;-62
2022/10/13 07:02:04;;;;;;;18.05;9.70;;;15.00;83.80;;;;;;5015465;28;20033;-62
2022/10/13 07:04:30;;;;;;;19.67;10.18;;;15.00;83.70;;;;;;5017390;28;20146;-61
2022/10/13 07:06:55;;;;;;;17.50;9.18;;;15.00;83.60;;;;;;5017311;28;20405;-61
2022/10/13 07:09:21;;;;;;;16.38;9.23;;;15.00;83.50;;;;;;5018212;28;20389;-60
2022/10/13 07:11:46;;;;;;;16.15;9.50;;;15.10;83.50;;;;;;5017024;28;20404;-61
2022/10/13 07:14:13;;;;;;;15.43;9.10;;;15.10;83.30;;;;;;5018513;28;20037;-61
2022/10/13 07:16:39;;;;;;;15.27;9.43;;;15.10;83.20;;;;;;5017003;28;20037;-61
2022/10/13 07:19:05;;;;;;;14.20;8.45;;;15.10;83.10;;;;;;5017347;28;20037;-62
2022/10/13 07:21:31;;;;;;;16.52;8.20;;;15.20;83.20;;;;;;5016353;28;20078;-61
2022/10/13 07:23:56;;;;;;;12.02;8.60;;;15.10;83.10;;;;;;5016227;28;20072;-60
2022/10/13 07:26:22;;;;;;;18.30;8.32;;;15.20;83.00;;;;;;5015326;28;20072;-61
2022/10/13 07:28:48;;;;;;;15.88;9.00;;;15.20;82.90;;;;;;5016945;28;20063;-61
2022/10/13 07:31:16;;;;;;;15.40;9.25;;;15.30;83.00;;;;;;5016567;28;20038;-62
2022/10/13 07:33:44;;;;;;;15.43;9.25;;;15.20;83.00;;;;;;5017880;28;20124;-61
2022/10/13 07:36:11;;;;;;;14.13;9.07;;;15.30;83.90;;;;;;5015861;28;20056;-61
2022/10/13 07:38:36;;;;;;;17.05;9.30;;;15.30;83.00;;;;;;5017250;28;20037;-62
2022/10/13 07:41:04;;;;;;;17.85;9.20;;;15.30;82.90;;;;;;5016752;28;20042;-60
2022/10/13 07:43:29;;;;;;;16.70;9.15;;;15.40;82.90;;;;;;5017630;28;20365;-61
2022/10/13 07:45:58;;;;;;;15.75;9.30;;;15.40;82.90;;;;;;5016667;28;20044;-60
2022/10/13 07:48:24;;;;;;;19.70;9.38;;;15.40;82.90;;;;;;5017613;28;20129;-62
2022/10/13 07:50:50;;;;;;;18.95;10.07;;;15.50;83.10;;;;;;5017972;28;20029;-62
2022/10/13 07:53:15;;;;;;;18.27;9.50;;;15.50;82.90;;;;;;5018321;28;20053;-62
2022/10/13 07:55:41;;;;;;;17.58;9.32;;;15.50;82.70;;;;;;5016596;28;20065;-62
2022/10/13 07:58:07;;;;;;;16.63;9.52;;;15.50;82.90;;;;;;5016319;28;20041;-62
2022/10/13 08:00:32;;;;;;;17.65;9.77;;;15.60;82.80;;;;;;5016220;28;20374;-62
2022/10/13 08:02:58;;;;;;;14.82;9.55;;;15.60;82.60;;;;;;5012849;28;20041;-60
2022/10/13 08:05:23;;;;;;;17.20;9.85;;;15.70;82.60;;;;;;5018133;28;20045;-61
2022/10/13 08:07:49;;;;;;;17.20;10.05;;;15.70;82.60;;;;;;5017831;28;20033;-62
2022/10/13 08:10:14;;;;;;;18.88;9.95;;;15.80;82.60;;;;;;5017828;28;20371;-61
2022/10/13 08:12:40;;;;;;;14.07;10.00;;;15.80;82.50;;;;;;5019002;28;20042;-61
2022/10/13 08:15:06;;;;;;;17.60;9.73;;;15.80;82.40;;;;;;5018841;28;20128;-62
2022/10/13 08:17:32;;;;;;;17.70;10.35;;;15.90;82.60;;;;;;5019040;28;20033;-61
2022/10/13 08:19:58;;;;;;;17.33;10.43;;;15.90;82.30;;;;;;5016209;28;20485;-62
2022/10/13 08:22:24;;;;;;;18.33;10.48;;;16.00;82.20;;;;;;5014363;28;20029;-62
2022/10/13 08:24:49;;;;;;;19.77;10.60;;;16.00;82.20;;;;;;5017814;28;20049;-62
2022/10/13 08:27:20;;;;;;;18.10;10.98;;;16.10;82.00;;;;;;5017277;28;20045;-61
2022/10/13 08:29:46;;;;;;;17.30;10.63;;;16.20;81.80;;;;;;5017538;28;20037;-61
2022/10/13 08:32:11;;;;;;;20.05;10.80;;;16.20;81.60;;;;;;5018608;28;20044;-61
2022/10/13 08:34:37;;;;;;;20.55;11.02;;;16.30;81.40;;;;;;5016398;28;20029;-61
2022/10/13 08:37:03;;;;;;;15.88;10.45;;;16.30;81.50;;;;;;5017506;28;20068;-61
2022/10/13 08:39:29;;;;;;;17.63;10.50;;;16.40;81.60;;;;;;5016755;28;20080;-61
2022/10/13 08:41:56;;;;;;;17.20;10.52;;;16.40;81.50;;;;;;5016478;28;20661;-61
2022/10/13 08:44:34;;;;;;;18.55;10.00;;;16.50;81.20;;;;;;5015699;28;20390;-62
2022/10/13 08:47:05;;;;;;;16.33;10.38;;;16.50;80.70;;;;;;5016556;28;20030;-62
2022/10/13 08:49:31;;;;;;;15.02;9.95;;;16.50;80.40;;;;;;5016675;28;20043;-61
2022/10/13 08:51:57;;;;;;;15.15;9.50;;;16.60;80.60;;;;;;5016384;28;20034;-62
2022/10/13 08:54:24;;;;;;;17.92;10.27;;;16.70;80.50;;;;;;5014019;28;20035;-61
2022/10/13 08:56:51;;;;;;;19.77;10.07;;;16.70;80.10;;;;;;5016294;28;20033;-61
2022/10/13 08:59:17;;;;;;;17.98;10.23;;;16.70;79.60;;;;;;5018127;28;20045;-62
2022/10/13 09:01:50;;;;;;;16.63;9.85;;;16.70;79.40;;;;;;5014906;28;20125;-60
2022/10/13 09:04:36;;;;;;;19.05;10.23;;;16.70;79.30;;;;;;5015660;28;20037;-62
2022/10/13 09:07:06;;;;;;;13.25;9.07;;;16.80;78.70;;;;;;5016558;28;20572;-62
2022/10/13 09:09:31;;;;;;;17.73;9.98;;;16.80;78.70;;;;;;5016201;28;20045;-62
2022/10/13 09:11:58;;;;;;;17.40;10.38;;;16.90;78.90;;;;;;5014358;28;20034;-63
2022/10/13 09:14:32;;;;;;;17.65;10.60;;;16.90;78.70;;;;;;5018435;28;20033;-63
2022/10/13 09:17:25;;;;;;;16.55;9.27;;;16.90;78.20;;;;;;5017407;28;20026;-62
2022/10/13 09:20:02;;;;;;;19.40;9.88;;;16.90;77.90;;;;;;5016627;28;20375;-63
2022/10/13 09:22:38;;;;;;;16.52;10.23;;;17.00;78.00;;;;;;5017731;28;20033;-60
2022/10/13 09:25:07;;;;;;;19.50;9.60;;;17.00;78.10;;;;;;5014467;28;20030;-61
2022/10/13 09:27:47;;;;;;;16.30;9.63;;;17.10;78.40;;;;;;5017342;28;20099;-61
2022/10/13 09:30:27;;;;;;;14.43;8.98;;;17.10;78.00;;;;;;5017430;28;20130;-61
2022/10/13 09:33:10;;;;;;;14.18;9.43;;;17.20;78.20;;;;;;5017720;28;20034;-62
2022/10/13 09:35:39;;;;;;;21.35;9.40;;;17.30;77.90;;;;;;5017764;28;20038;-62
2022/10/13 09:38:06;;;;;;;17.45;9.30;;;17.30;78.40;;;;;;5018063;28;20103;-62
2022/10/13 09:40:32;;;;;;;15.45;9.35;;;17.40;78.30;;;;;;5016546;28;20022;-61
2022/10/13 09:43:00;;;;;;;17.85;9.65;;;17.40;78.00;;;;;;5016724;28;20505;-63
2022/10/13 09:45:29;;;;;;;17.50;9.25;;;17.50;77.70;;;;;;5018140;28;20052;-63
2022/10/13 09:47:58;;;;;;;15.65;9.40;;;17.60;77.50;;;;;;5017318;28;20114;-63
2022/10/13 09:50:29;;;;;;;14.27;8.85;;;17.60;76.80;;;;;;5017038;28;20030;-61
2022/10/13 09:53:09;;;;;;;11.77;8.63;;;17.70;76.60;;;;;;5014893;28;20045;-62
2022/10/13 09:55:35;;;;;;;18.20;8.55;;;17.70;76.00;;;;;;5020598;28;20034;-62
2022/10/13 09:58:26;;;;;;;15.05;8.35;;;17.70;76.60;;;;;;5020396;28;20094;-62
2022/10/13 10:00:53;;;;;;;14.32;8.38;;;17.80;75.60;;;;;;5019412;28;20506;-62
2022/10/13 10:03:24;;;;;;;14.48;8.65;;;17.80;76.40;;;;;;5017579;28;20033;-61
2022/10/13 10:05:54;;;;;;;15.10;10.07;;;17.80;76.30;;;;;;5018330;28;20108;-61
2022/10/13 10:08:46;;;;;;;17.92;9.80;;;17.80;76.10;;;;;;5018782;28;20034;-63
2022/10/13 10:11:37;;;;;;;14.90;9.05;;;17.90;75.40;;;;;;5009991;28;20084;-63
2022/10/13 10:14:25;;;;;;;12.63;8.70;;;18.00;75.30;;;;;;5006165;28;20046;-62
2022/10/13 10:17:18;;;;;;;17.42;9.15;;;18.00;75.30;;;;;;5020257;28;20045;-62
2022/10/13 10:20:20;;;;;;;12.45;8.98;;;18.00;75.20;;;;;;5017947;28;20134;-62
2022/10/13 10:23:11;;;;;;;13.80;9.02;;;18.10;74.80;;;;;;5019113;28;20034;-62
2022/10/13 10:25:43;;;;;;;13.30;9.00;;;18.20;74.60;;;;;;5017501;28;20049;-63
2022/10/13 10:28:27;;;;;;;12.73;8.55;;;18.20;75.20;;;;;;5017920;28;20040;-62
2022/10/13 10:30:59;;;;;;;15.07;8.32;;;18.20;74.70;;;;;;5015510;28;20034;-63
2022/10/13 10:33:49;;;;;;;13.98;9.00;;;18.20;75.30;;;;;;5015817;28;20033;-63
2022/10/13 10:36:27;;;;;;;14.77;8.70;;;18.30;74.50;;;;;;5017517;28;20034;-63
2022/10/13 10:39:08;;;;;;;15.85;8.88;;;18.30;74.90;;;;;;5014928;28;20106;-63
2022/10/13 10:41:53;;;;;;;15.77;8.80;;;18.30;74.40;;;;;;5018700;28;20528;-63
2022/10/13 10:44:41;;;;;;;16.35;9.10;;;18.40;74.40;;;;;;5015701;28;20512;-63
2022/10/13 10:47:26;;;;;;;11.73;7.50;;;18.40;75.00;;;;;;5006655;28;20040;-63
2022/10/13 10:49:58;;;;;;;11.68;8.45;;;18.40;74.40;;;;;;5016688;28;20418;-63
2022/10/13 10:52:33;;;;;;;17.77;8.10;;;18.40;75.60;;;;;;5014098;28;20073;-63
2022/10/13 10:55:16;;;;;;;12.23;8.10;;;18.40;74.70;;;;;;5019030;28;20412;-63
2022/10/13 10:58:19;;;;;;;11.30;8.05;;;18.50;74.10;;;;;;5018301;28;20453;-63
2022/10/13 11:00:56;;;;;;;13.20;8.02;;;18.50;73.70;;;;;;5017015;28;20049;-63
2022/10/13 11:03:34;;;;;;;12.23;7.68;;;18.50;73.70;;;;;;5016844;28;20088;-63
2022/10/13 11:06:19;;;;;;;14.30;8.10;;;18.50;74.00;;;;;;5017231;28;20036;-63
2022/10/13 11:08:46;;;;;;;11.15;6.82;;;18.50;73.70;;;;;;5016526;28;20042;-63
2022/10/13 11:11:21;;;;;;;12.55;7.45;;;18.60;73.90;;;;;;5014623;28;20040;-62
2022/10/13 11:14:03;;;;;;;15.82;7.80;;;18.60;73.20;;;;;;5016270;28;20033;-63
2022/10/13 11:16:33;;;;;;;11.90;7.07;;;18.50;73.20;;;;;;5015358;28;20444;-63
2022/10/13 11:19:06;;;;;;;12.70;7.68;;;18.60;73.30;;;;;;5016733;28;20121;-63
2022/10/13 11:21:54;;;;;;;11.18;7.38;;;18.60;73.30;;;;;;5019154;28;20117;-63
2022/10/13 11:24:41;;;;;;;14.30;7.20;;;18.60;73.00;;;;;;5015957;28;20034;-64
2022/10/13 11:27:15;;;;;;;12.10;7.38;;;18.60;73.00;;;;;;5018560;28;20045;-63
2022/10/13 11:29:52;;;;;;;;;;;18.60;73.00;;;;;;5017116;28;20099;-64
2022/10/13 11:32:24;;;;;;;10.18;7.22;;;18.60;73.50;;;;;;5016340;28;19917;-63
2022/10/13 11:35:05;;;;;;;15.00;7.85;;;18.60;73.30;;;;;;5018307;28;20045;-63
2022/10/13 11:37:59;;;;;;;15.73;7.82;;;18.60;72.50;;;;;;5017398;28;20065;-63
2022/10/13 11:40:40;;;;;;;13.95;8.13;;;18.60;72.80;;;;;;5013899;28;20034;-63
2022/10/13 11:43:17;;;;;;;15.07;8.43;;;18.60;72.70;;;;;;5018996;28;20037;-63
2022/10/13 11:45:58;;;;;;;12.52;8.32;;;18.50;72.80;;;;;;5017224;28;20480;-62
2022/10/13 11:48:56;;;;;;;13.50;7.85;;;18.50;73.00;;;;;;5016797;28;20033;-62
2022/10/13 11:51:41;;;;;;;13.05;8.30;;;18.60;73.60;;;;;;4952509;28;20030;-62
2022/10/13 11:54:31;;;;;;;13.18;7.70;;;18.60;73.20;;;;;;5017442;28;20034;-63
2022/10/13 11:56:57;;;;;;;13.63;7.60;;;18.60;73.30;;;;;;5016549;28;20065;-63
2022/10/13 11:59:28;;;;;;;14.23;8.15;;;18.60;73.70;;;;;;5017367;28;20113;-63
2022/10/13 12:02:04;;;;;;;15.25;8.30;;;18.60;73.30;;;;;;5017552;28;20436;-62
2022/10/13 12:04:30;;;;;;;11.55;8.13;;;18.60;73.30;;;;;;5002424;28;20036;-64
2022/10/13 12:07:30;;;;;;;12.88;8.50;;;18.60;73.30;;;;;;5015894;28;20041;-63
2022/10/13 12:09:56;;;;;;;12.07;8.30;;;18.60;73.00;;;;;;4993202;28;20030;-63
2022/10/13 12:12:23;;;;;;;15.13;8.43;;;18.60;73.50;;;;;;4995333;28;20037;-63
2022/10/13 12:14:54;;;;;;;15.60;9.40;;;18.60;73.60;;;;;;5015638;28;20041;-62
2022/10/13 12:17:20;;;;;;;16.02;9.02;;;18.60;73.50;;;;;;5013690;28;20034;-63
2022/10/13 12:19:46;;;;;;;14.00;9.50;;;18.60;73.60;;;;;;5015857;28;20505;-63
2022/10/13 12:22:11;;;;;;;12.18;8.90;;;18.60;73.50;;;;;;5014643;28;20116;-63
2022/10/13 12:24:37;;;;;;;13.15;8.68;;;18.60;73.50;;;;;;5015476;28;20701;-64
2022/10/13 12:27:17;;;;;;;17.45;9.48;;;18.60;73.30;;;;;;5015530;28;20033;-63
2022/10/13 12:29:42;;;;;;;15.95;8.60;;;18.60;73.10;;;;;;5015851;28;20465;-63
2022/10/13 12:32:19;;;;;;;18.42;8.63;;;18.60;73.60;;;;;;5016722;28;20057;-64
2022/10/13 12:34:44;;;;;;;12.00;8.73;;;18.60;73.50;;;;;;5015820;28;20076;-62
2022/10/13 12:37:37;;;;;;;14.77;8.93;;;18.60;73.80;;;;;;5016828;28;20045;-63
2022/10/13 12:40:03;;;;;;;12.05;8.77;;;18.60;73.30;;;;;;5014570;28;20042;-63
2022/10/13 12:42:34;;;;;;;16.10;9.73;;;18.50;73.60;;;;;;5014194;28;20037;-62
2022/10/13 12:45:01;;;;;;;15.93;9.45;;;18.50;73.30;;;;;;5015028;28;20075;-62
2022/10/13 12:47:48;;;;;;;14.00;9.45;;;18.50;73.50;;;;;;5015354;28;20038;-63
2022/10/13 12:50:24;;;;;;;15.90;9.25;;;18.50;73.00;;;;;;5015648;28;20128;-63